sensor_id;sensor_type;location;lat;lon;timestamp;P1;durP1;ratioP1;P2;durP2;ratioP2
30327;SDS011;17133;52.418;13.398;2022-09-03T00:07:42;2.15;;;1.30;;
30327;SDS011;17133;52.418;13.398;2022-09-03T00:10:11;1.80;;;1.20;;
30327;SDS011;17133;52.418;13.398;2022-09-03T00:12:45;3.50;;;1.30;;
30327;SDS011;17133;52.418;13.398;2022-09-03T00:15:12;2.85;;;1.45;;
30327;SDS011;17133;52.418;13.398;2022-09-03T00:17:43;2.75;;;1.55;;
30327;SDS011;17133;52.418;13.398;2022-09-03T00:20:24;3.67;;;1.35;;
30327;SDS011;17133;52.418;13.398;2022-09-03T00:22:56;3.22;;;1.30;;
30327;SDS011;17133;52.418;13.398;2022-09-03T00:25:33;2.63;;;1.30;;
30327;SDS011;17133;52.418;13.398;2022-09-03T00:30:45;3.88;;;1.30;;
30327;SDS011;17133;52.418;13.398;2022-09-03T00:33:19;2.67;;;1.58;;
30327;SDS011;17133;52.418;13.398;2022-09-03T00:36:03;2.42;;;1.25;;
30327;SDS011;17133;52.418;13.398;2022-09-03T00:38:49;3.05;;;1.88;;
30327;SDS011;17133;52.418;13.398;2022-09-03T00:46:25;3.53;;;1.55;;
30327;SDS011;17133;52.418;13.398;2022-09-03T01:03:09;1.98;;;1.20;;
30327;SDS011;17133;52.418;13.398;2022-09-03T01:05:46;4.80;;;1.50;;
30327;SDS011;17133;52.418;13.398;2022-09-03T01:13:56;3.03;;;1.65;;
30327;SDS011;17133;52.418;13.398;2022-09-03T01:16:39;1.48;;;1.00;;
30327;SDS011;17133;52.418;13.398;2022-09-03T01:19:39;1.50;;;1.00;;
30327;SDS011;17133;52.418;13.398;2022-09-03T01:30:34;3.42;;;1.30;;
30327;SDS011;17133;52.418;13.398;2022-09-03T01:33:11;2.70;;;1.25;;
30327;SDS011;17133;52.418;13.398;2022-09-03T01:39:03;3.38;;;1.27;;
30327;SDS011;17133;52.418;13.398;2022-09-03T01:44:31;2.97;;;1.17;;
30327;SDS011;17133;52.418;13.398;2022-09-03T01:48:20;2.92;;;1.40;;
30327;SDS011;17133;52.418;13.398;2022-09-03T01:53:25;2.38;;;1.30;;
30327;SDS011;17133;52.418;13.398;2022-09-03T01:58:36;2.28;;;1.08;;
30327;SDS011;17133;52.418;13.398;2022-09-03T02:01:18;2.63;;;1.38;;
30327;SDS011;17133;52.418;13.398;2022-09-03T02:03:50;1.90;;;1.30;;
30327;SDS011;17133;52.418;13.398;2022-09-03T02:06:24;4.75;;;1.70;;
30327;SDS011;17133;52.418;13.398;2022-09-03T02:08:51;3.10;;;1.67;;
30327;SDS011;17133;52.418;13.398;2022-09-03T02:11:17;2.85;;;1.65;;
30327;SDS011;17133;52.418;13.398;2022-09-03T02:13:44;3.28;;;1.77;;
30327;SDS011;17133;52.418;13.398;2022-09-03T02:16:15;2.30;;;1.40;;
30327;SDS011;17133;52.418;13.398;2022-09-03T02:18:56;2.90;;;1.40;;
30327;SDS011;17133;52.418;13.398;2022-09-03T02:21:26;2.67;;;1.30;;
30327;SDS011;17133;52.418;13.398;2022-09-03T02:23:57;2.05;;;1.38;;
30327;SDS011;17133;52.418;13.398;2022-09-03T02:26:24;3.13;;;1.48;;
30327;SDS011;17133;52.418;13.398;2022-09-03T02:28:50;3.88;;;1.42;;
30327;SDS011;17133;52.418;13.398;2022-09-03T02:31:17;2.10;;;1.27;;
30327;SDS011;17133;52.418;13.398;2022-09-03T02:33:44;4.15;;;1.42;;
30327;SDS011;17133;52.418;13.398;2022-09-03T02:36:13;3.15;;;1.70;;
30327;SDS011;17133;52.418;13.398;2022-09-03T02:38:40;2.70;;;1.48;;
30327;SDS011;17133;52.418;13.398;2022-09-03T02:41:07;3.25;;;1.23;;
30327;SDS011;17133;52.418;13.398;2022-09-03T02:43:38;2.78;;;1.48;;
30327;SDS011;17133;52.418;13.398;2022-09-03T02:46:13;2.70;;;1.30;;
30327;SDS011;17133;52.418;13.398;2022-09-03T02:48:45;2.45;;;1.23;;
30327;SDS011;17133;52.418;13.398;2022-09-03T02:51:10;2.70;;;1.20;;
30327;SDS011;17133;52.418;13.398;2022-09-03T02:53:37;2.50;;;1.38;;
30327;SDS011;17133;52.418;13.398;2022-09-03T02:56:03;3.53;;;1.35;;
30327;SDS011;17133;52.418;13.398;2022-09-03T02:58:29;2.00;;;1.20;;
30327;SDS011;17133;52.418;13.398;2022-09-03T03:00:55;2.45;;;1.42;;
30327;SDS011;17133;52.418;13.398;2022-09-03T03:03:21;2.10;;;1.27;;
30327;SDS011;17133;52.418;13.398;2022-09-03T03:05:48;2.75;;;1.65;;
30327;SDS011;17133;52.418;13.398;2022-09-03T03:08:15;3.63;;;1.20;;
30327;SDS011;17133;52.418;13.398;2022-09-03T03:13:11;4.30;;;1.50;;
30327;SDS011;17133;52.418;13.398;2022-09-03T03:15:38;3.33;;;1.58;;
30327;SDS011;17133;52.418;13.398;2022-09-03T03:18:03;3.13;;;1.60;;
30327;SDS011;17133;52.418;13.398;2022-09-03T03:20:29;3.30;;;1.65;;
30327;SDS011;17133;52.418;13.398;2022-09-03T03:22:55;2.38;;;1.45;;
30327;SDS011;17133;52.418;13.398;2022-09-03T03:25:21;2.53;;;1.27;;
30327;SDS011;17133;52.418;13.398;2022-09-03T03:27:46;2.63;;;1.38;;
30327;SDS011;17133;52.418;13.398;2022-09-03T03:30:12;4.63;;;1.65;;
30327;SDS011;17133;52.418;13.398;2022-09-03T03:32:38;3.45;;;1.70;;
30327;SDS011;17133;52.418;13.398;2022-09-03T03:35:04;2.65;;;1.10;;
30327;SDS011;17133;52.418;13.398;2022-09-03T03:37:31;5.50;;;1.55;;
30327;SDS011;17133;52.418;13.398;2022-09-03T03:39:57;4.82;;;1.50;;
30327;SDS011;17133;52.418;13.398;2022-09-03T03:42:23;3.35;;;1.30;;
30327;SDS011;17133;52.418;13.398;2022-09-03T03:44:49;2.55;;;1.42;;
30327;SDS011;17133;52.418;13.398;2022-09-03T03:47:14;1.92;;;1.48;;
30327;SDS011;17133;52.418;13.398;2022-09-03T03:49:43;3.20;;;1.60;;
30327;SDS011;17133;52.418;13.398;2022-09-03T03:52:09;2.90;;;1.58;;
30327;SDS011;17133;52.418;13.398;2022-09-03T03:54:34;3.55;;;1.58;;
30327;SDS011;17133;52.418;13.398;2022-09-03T03:57:00;2.95;;;1.50;;
30327;SDS011;17133;52.418;13.398;2022-09-03T03:59:25;2.40;;;1.50;;
30327;SDS011;17133;52.418;13.398;2022-09-03T04:01:53;3.58;;;1.75;;
30327;SDS011;17133;52.418;13.398;2022-09-03T04:04:19;3.92;;;1.52;;
30327;SDS011;17133;52.418;13.398;2022-09-03T04:06:44;2.88;;;1.70;;
30327;SDS011;17133;52.418;13.398;2022-09-03T04:09:10;3.72;;;1.60;;
30327;SDS011;17133;52.418;13.398;2022-09-03T04:11:36;3.75;;;1.60;;
30327;SDS011;17133;52.418;13.398;2022-09-03T04:14:02;2.92;;;1.48;;
30327;SDS011;17133;52.418;13.398;2022-09-03T04:16:28;3.28;;;1.45;;
30327;SDS011;17133;52.418;13.398;2022-09-03T04:18:54;2.97;;;1.60;;
30327;SDS011;17133;52.418;13.398;2022-09-03T04:21:25;4.53;;;2.28;;
30327;SDS011;17133;52.418;13.398;2022-09-03T04:23:51;4.72;;;1.80;;
30327;SDS011;17133;52.418;13.398;2022-09-03T04:26:19;2.83;;;1.52;;
30327;SDS011;17133;52.418;13.398;2022-09-03T04:28:47;4.00;;;1.70;;
30327;SDS011;17133;52.418;13.398;2022-09-03T04:31:14;3.20;;;1.48;;
30327;SDS011;17133;52.418;13.398;2022-09-03T04:33:42;2.43;;;1.43;;
30327;SDS011;17133;52.418;13.398;2022-09-03T04:36:08;3.13;;;1.77;;
30327;SDS011;17133;52.418;13.398;2022-09-03T04:38:37;3.78;;;1.98;;
30327;SDS011;17133;52.418;13.398;2022-09-03T04:41:04;2.85;;;1.65;;
30327;SDS011;17133;52.418;13.398;2022-09-03T04:43:31;3.78;;;1.90;;
30327;SDS011;17133;52.418;13.398;2022-09-03T04:45:57;2.15;;;1.50;;
30327;SDS011;17133;52.418;13.398;2022-09-03T04:48:24;3.47;;;1.90;;
30327;SDS011;17133;52.418;13.398;2022-09-03T04:50:51;3.13;;;1.88;;
30327;SDS011;17133;52.418;13.398;2022-09-03T04:53:17;3.38;;;1.83;;
30327;SDS011;17133;52.418;13.398;2022-09-03T04:55:42;4.10;;;2.03;;
30327;SDS011;17133;52.418;13.398;2022-09-03T04:58:08;4.55;;;2.17;;
30327;SDS011;17133;52.418;13.398;2022-09-03T05:00:37;3.58;;;2.08;;
30327;SDS011;17133;52.418;13.398;2022-09-03T05:03:03;3.95;;;2.00;;
30327;SDS011;17133;52.418;13.398;2022-09-03T05:05:32;3.63;;;2.10;;
30327;SDS011;17133;52.418;13.398;2022-09-03T05:08:01;7.03;;;2.33;;
30327;SDS011;17133;52.418;13.398;2022-09-03T05:10:28;3.58;;;2.05;;
30327;SDS011;17133;52.418;13.398;2022-09-03T05:12:58;5.75;;;2.60;;
30327;SDS011;17133;52.418;13.398;2022-09-03T05:15:24;4.78;;;2.20;;
30327;SDS011;17133;52.418;13.398;2022-09-03T05:17:49;3.75;;;2.25;;
30327;SDS011;17133;52.418;13.398;2022-09-03T05:20:19;6.35;;;2.60;;
30327;SDS011;17133;52.418;13.398;2022-09-03T05:22:45;6.05;;;2.55;;
30327;SDS011;17133;52.418;13.398;2022-09-03T05:25:11;4.80;;;2.30;;
30327;SDS011;17133;52.418;13.398;2022-09-03T05:27:36;4.90;;;2.42;;
30327;SDS011;17133;52.418;13.398;2022-09-03T05:30:02;6.10;;;2.53;;
30327;SDS011;17133;52.418;13.398;2022-09-03T05:32:29;3.30;;;2.47;;
30327;SDS011;17133;52.418;13.398;2022-09-03T05:34:55;5.35;;;2.80;;
30327;SDS011;17133;52.418;13.398;2022-09-03T05:37:21;4.00;;;2.22;;
30327;SDS011;17133;52.418;13.398;2022-09-03T05:39:47;3.45;;;2.30;;
30327;SDS011;17133;52.418;13.398;2022-09-03T05:42:13;5.82;;;2.70;;
30327;SDS011;17133;52.418;13.398;2022-09-03T05:44:39;5.63;;;2.45;;
30327;SDS011;17133;52.418;13.398;2022-09-03T05:47:04;6.55;;;2.45;;
30327;SDS011;17133;52.418;13.398;2022-09-03T05:49:30;4.15;;;2.65;;
30327;SDS011;17133;52.418;13.398;2022-09-03T05:51:56;6.00;;;2.10;;
30327;SDS011;17133;52.418;13.398;2022-09-03T05:54:22;5.63;;;2.60;;
30327;SDS011;17133;52.418;13.398;2022-09-03T05:56:47;3.88;;;2.47;;
30327;SDS011;17133;52.418;13.398;2022-09-03T05:59:13;5.10;;;2.58;;
30327;SDS011;17133;52.418;13.398;2022-09-03T06:01:40;3.92;;;2.15;;
30327;SDS011;17133;52.418;13.398;2022-09-03T06:04:12;6.63;;;2.92;;
30327;SDS011;17133;52.418;13.398;2022-09-03T06:06:42;4.15;;;2.20;;
30327;SDS011;17133;52.418;13.398;2022-09-03T06:09:13;3.80;;;2.00;;
30327;SDS011;17133;52.418;13.398;2022-09-03T06:11:43;4.30;;;2.58;;
30327;SDS011;17133;52.418;13.398;2022-09-03T06:14:11;4.50;;;2.10;;
30327;SDS011;17133;52.418;13.398;2022-09-03T06:16:38;5.43;;;2.65;;
30327;SDS011;17133;52.418;13.398;2022-09-03T06:19:06;3.33;;;2.65;;
30327;SDS011;17133;52.418;13.398;2022-09-03T06:21:35;8.68;;;2.70;;
30327;SDS011;17133;52.418;13.398;2022-09-03T06:24:06;5.13;;;2.88;;
30327;SDS011;17133;52.418;13.398;2022-09-03T06:26:36;4.72;;;2.53;;
30327;SDS011;17133;52.418;13.398;2022-09-03T06:29:02;4.15;;;2.70;;
30327;SDS011;17133;52.418;13.398;2022-09-03T06:31:28;3.30;;;2.17;;
30327;SDS011;17133;52.418;13.398;2022-09-03T06:33:54;4.38;;;2.35;;
30327;SDS011;17133;52.418;13.398;2022-09-03T06:36:20;4.32;;;2.40;;
30327;SDS011;17133;52.418;13.398;2022-09-03T06:38:49;3.80;;;2.50;;
30327;SDS011;17133;52.418;13.398;2022-09-03T06:41:17;4.03;;;2.88;;
30327;SDS011;17133;52.418;13.398;2022-09-03T06:43:45;4.50;;;2.80;;
30327;SDS011;17133;52.418;13.398;2022-09-03T06:46:12;4.00;;;2.33;;
30327;SDS011;17133;52.418;13.398;2022-09-03T06:48:39;5.03;;;2.97;;
30327;SDS011;17133;52.418;13.398;2022-09-03T06:51:06;3.97;;;2.70;;
30327;SDS011;17133;52.418;13.398;2022-09-03T06:53:41;4.30;;;2.90;;
30327;SDS011;17133;52.418;13.398;2022-09-03T06:56:12;4.72;;;2.50;;
30327;SDS011;17133;52.418;13.398;2022-09-03T06:58:40;3.60;;;2.10;;
30327;SDS011;17133;52.418;13.398;2022-09-03T07:01:15;4.25;;;2.60;;
30327;SDS011;17133;52.418;13.398;2022-09-03T07:03:43;4.13;;;2.47;;
30327;SDS011;17133;52.418;13.398;2022-09-03T07:06:15;3.50;;;2.33;;
30327;SDS011;17133;52.418;13.398;2022-09-03T07:08:43;4.93;;;2.50;;
30327;SDS011;17133;52.418;13.398;2022-09-03T07:11:14;7.05;;;2.58;;
30327;SDS011;17133;52.418;13.398;2022-09-03T07:13:44;5.10;;;2.15;;
30327;SDS011;17133;52.418;13.398;2022-09-03T07:16:15;5.95;;;2.50;;
30327;SDS011;17133;52.418;13.398;2022-09-03T07:18:45;3.85;;;2.47;;
30327;SDS011;17133;52.418;13.398;2022-09-03T07:21:12;2.80;;;1.98;;
30327;SDS011;17133;52.418;13.398;2022-09-03T07:23:43;6.60;;;2.42;;
30327;SDS011;17133;52.418;13.398;2022-09-03T07:26:10;6.13;;;2.67;;
30327;SDS011;17133;52.418;13.398;2022-09-03T07:28:46;3.40;;;1.83;;
30327;SDS011;17133;52.418;13.398;2022-09-03T07:31:22;5.50;;;2.65;;
30327;SDS011;17133;52.418;13.398;2022-09-03T07:33:53;4.38;;;2.50;;
30327;SDS011;17133;52.418;13.398;2022-09-03T07:36:20;4.10;;;1.80;;
30327;SDS011;17133;52.418;13.398;2022-09-03T07:38:46;3.80;;;2.20;;
30327;SDS011;17133;52.418;13.398;2022-09-03T07:41:13;3.15;;;1.92;;
30327;SDS011;17133;52.418;13.398;2022-09-03T07:43:43;5.53;;;2.00;;
30327;SDS011;17133;52.418;13.398;2022-09-03T07:46:13;4.57;;;2.28;;
30327;SDS011;17133;52.418;13.398;2022-09-03T07:48:45;3.42;;;2.05;;
30327;SDS011;17133;52.418;13.398;2022-09-03T07:51:13;3.25;;;2.20;;
30327;SDS011;17133;52.418;13.398;2022-09-03T07:53:38;4.93;;;2.55;;
30327;SDS011;17133;52.418;13.398;2022-09-03T07:56:05;6.50;;;2.55;;
30327;SDS011;17133;52.418;13.398;2022-09-03T07:58:32;5.57;;;2.30;;
30327;SDS011;17133;52.418;13.398;2022-09-03T08:01:03;4.97;;;2.20;;
30327;SDS011;17133;52.418;13.398;2022-09-03T08:03:30;4.55;;;2.03;;
30327;SDS011;17133;52.418;13.398;2022-09-03T08:05:59;5.93;;;2.08;;
30327;SDS011;17133;52.418;13.398;2022-09-03T08:08:29;4.35;;;2.03;;
30327;SDS011;17133;52.418;13.398;2022-09-03T08:11:02;3.70;;;2.17;;
30327;SDS011;17133;52.418;13.398;2022-09-03T08:13:34;5.25;;;3.33;;
30327;SDS011;17133;52.418;13.398;2022-09-03T08:16:11;6.40;;;4.15;;
30327;SDS011;17133;52.418;13.398;2022-09-03T08:18:38;9.02;;;5.30;;
30327;SDS011;17133;52.418;13.398;2022-09-03T08:21:08;10.48;;;6.78;;
30327;SDS011;17133;52.418;13.398;2022-09-03T08:23:39;7.20;;;4.32;;
30327;SDS011;17133;52.418;13.398;2022-09-03T08:26:05;6.20;;;3.13;;
30327;SDS011;17133;52.418;13.398;2022-09-03T08:28:31;4.47;;;2.17;;
30327;SDS011;17133;52.418;13.398;2022-09-03T08:31:03;5.88;;;2.60;;
30327;SDS011;17133;52.418;13.398;2022-09-03T08:33:31;5.38;;;3.55;;
30327;SDS011;17133;52.418;13.398;2022-09-03T08:36:06;7.50;;;3.67;;
30327;SDS011;17133;52.418;13.398;2022-09-03T08:38:33;7.07;;;3.75;;
30327;SDS011;17133;52.418;13.398;2022-09-03T08:41:18;4.57;;;3.08;;
30327;SDS011;17133;52.418;13.398;2022-09-03T08:49:23;2.30;;;1.50;;
30327;SDS011;17133;52.418;13.398;2022-09-03T08:51:53;3.83;;;1.73;;
30327;SDS011;17133;52.418;13.398;2022-09-03T08:54:24;3.42;;;1.50;;
30327;SDS011;17133;52.418;13.398;2022-09-03T08:56:53;4.20;;;1.90;;
30327;SDS011;17133;52.418;13.398;2022-09-03T08:59:24;5.63;;;2.10;;
30327;SDS011;17133;52.418;13.398;2022-09-03T09:01:57;3.42;;;1.70;;
30327;SDS011;17133;52.418;13.398;2022-09-03T09:07:48;7.15;;;1.83;;
30327;SDS011;17133;52.418;13.398;2022-09-03T09:10:42;3.67;;;1.70;;
30327;SDS011;17133;52.418;13.398;2022-09-03T09:16:05;5.53;;;1.60;;
30327;SDS011;17133;52.418;13.398;2022-09-03T09:21:38;2.75;;;1.40;;
30327;SDS011;17133;52.418;13.398;2022-09-03T09:24:12;4.80;;;1.60;;
30327;SDS011;17133;52.418;13.398;2022-09-03T09:26:59;3.85;;;1.60;;
30327;SDS011;17133;52.418;13.398;2022-09-03T09:29:31;3.08;;;1.40;;
30327;SDS011;17133;52.418;13.398;2022-09-03T09:32:00;5.32;;;1.90;;
30327;SDS011;17133;52.418;13.398;2022-09-03T09:34:26;2.22;;;1.27;;
30327;SDS011;17133;52.418;13.398;2022-09-03T09:36:53;3.15;;;1.38;;
30327;SDS011;17133;52.418;13.398;2022-09-03T09:39:19;3.17;;;1.23;;
30327;SDS011;17133;52.418;13.398;2022-09-03T09:41:56;4.68;;;1.42;;
30327;SDS011;17133;52.418;13.398;2022-09-03T09:44:24;2.80;;;1.40;;
30327;SDS011;17133;52.418;13.398;2022-09-03T09:46:50;5.43;;;1.50;;
30327;SDS011;17133;52.418;13.398;2022-09-03T09:49:31;4.03;;;1.60;;
30327;SDS011;17133;52.418;13.398;2022-09-03T09:52:09;3.55;;;1.58;;
30327;SDS011;17133;52.418;13.398;2022-09-03T09:54:36;2.10;;;1.35;;
30327;SDS011;17133;52.418;13.398;2022-09-03T09:57:05;4.20;;;1.80;;
30327;SDS011;17133;52.418;13.398;2022-09-03T10:02:12;3.42;;;1.42;;
30327;SDS011;17133;52.418;13.398;2022-09-03T10:07:26;1.90;;;1.30;;
30327;SDS011;17133;52.418;13.398;2022-09-03T10:12:49;3.65;;;1.33;;
30327;SDS011;17133;52.418;13.398;2022-09-03T10:21:04;2.72;;;1.08;;
30327;SDS011;17133;52.418;13.398;2022-09-03T10:26:12;2.92;;;1.17;;
30327;SDS011;17133;52.418;13.398;2022-09-03T10:28:41;3.30;;;1.33;;
30327;SDS011;17133;52.418;13.398;2022-09-03T10:34:04;3.85;;;1.40;;
30327;SDS011;17133;52.418;13.398;2022-09-03T10:36:57;2.70;;;1.38;;
30327;SDS011;17133;52.418;13.398;2022-09-03T10:39:28;2.28;;;1.20;;
30327;SDS011;17133;52.418;13.398;2022-09-03T10:47:58;4.80;;;1.00;;
30327;SDS011;17133;52.418;13.398;2022-09-03T10:50:32;2.70;;;1.27;;
30327;SDS011;17133;52.418;13.398;2022-09-03T11:01:31;2.55;;;1.23;;
30327;SDS011;17133;52.418;13.398;2022-09-03T11:04:20;2.38;;;1.20;;
30327;SDS011;17133;52.418;13.398;2022-09-03T11:07:08;2.13;;;1.30;;
30327;SDS011;17133;52.418;13.398;2022-09-03T11:09:38;3.53;;;1.15;;
30327;SDS011;17133;52.418;13.398;2022-09-03T11:14:47;3.45;;;1.20;;
30327;SDS011;17133;52.418;13.398;2022-09-03T11:17:49;3.65;;;1.25;;
30327;SDS011;17133;52.418;13.398;2022-09-03T11:20:20;4.60;;;1.63;;
30327;SDS011;17133;52.418;13.398;2022-09-03T11:22:48;2.15;;;1.27;;
30327;SDS011;17133;52.418;13.398;2022-09-03T11:25:18;5.25;;;1.50;;
30327;SDS011;17133;52.418;13.398;2022-09-03T11:28:02;3.45;;;1.08;;
30327;SDS011;17133;52.418;13.398;2022-09-03T11:33:16;3.88;;;1.38;;
30327;SDS011;17133;52.418;13.398;2022-09-03T11:35:46;2.08;;;1.13;;
30327;SDS011;17133;52.418;13.398;2022-09-03T11:38:25;2.50;;;1.27;;
30327;SDS011;17133;52.418;13.398;2022-09-03T11:40:59;2.95;;;1.23;;
30327;SDS011;17133;52.418;13.398;2022-09-03T11:43:40;2.92;;;1.15;;
30327;SDS011;17133;52.418;13.398;2022-09-03T11:46:10;2.33;;;1.25;;
30327;SDS011;17133;52.418;13.398;2022-09-03T11:48:47;2.13;;;0.93;;
30327;SDS011;17133;52.418;13.398;2022-09-03T11:51:28;3.38;;;1.30;;
30327;SDS011;17133;52.418;13.398;2022-09-03T11:54:22;6.97;;;1.48;;
30327;SDS011;17133;52.418;13.398;2022-09-03T11:56:47;4.32;;;1.52;;
30327;SDS011;17133;52.418;13.398;2022-09-03T11:59:23;2.83;;;1.38;;
30327;SDS011;17133;52.418;13.398;2022-09-03T12:04:24;2.78;;;1.30;;
30327;SDS011;17133;52.418;13.398;2022-09-03T12:07:05;5.32;;;1.50;;
30327;SDS011;17133;52.418;13.398;2022-09-03T12:18:23;2.67;;;1.70;;
30327;SDS011;17133;52.418;13.398;2022-09-03T12:26:15;2.67;;;1.10;;
30327;SDS011;17133;52.418;13.398;2022-09-03T12:28:44;3.75;;;1.60;;
30327;SDS011;17133;52.418;13.398;2022-09-03T12:36:22;3.55;;;1.50;;
30327;SDS011;17133;52.418;13.398;2022-09-03T12:38:48;1.83;;;1.17;;
30327;SDS011;17133;52.418;13.398;2022-09-03T12:41:21;3.97;;;1.38;;
30327;SDS011;17133;52.418;13.398;2022-09-03T12:43:52;5.00;;;1.80;;
30327;SDS011;17133;52.418;13.398;2022-09-03T12:46:32;2.95;;;1.75;;
30327;SDS011;17133;52.418;13.398;2022-09-03T12:51:36;5.78;;;1.60;;
30327;SDS011;17133;52.418;13.398;2022-09-03T12:54:05;2.78;;;1.30;;
30327;SDS011;17133;52.418;13.398;2022-09-03T12:56:39;3.75;;;1.20;;
30327;SDS011;17133;52.418;13.398;2022-09-03T12:59:13;3.65;;;1.42;;
30327;SDS011;17133;52.418;13.398;2022-09-03T13:01:52;4.32;;;1.77;;
30327;SDS011;17133;52.418;13.398;2022-09-03T13:04:30;6.22;;;1.60;;
30327;SDS011;17133;52.418;13.398;2022-09-03T13:07:00;4.78;;;1.75;;
30327;SDS011;17133;52.418;13.398;2022-09-03T13:09:33;3.47;;;1.50;;
30327;SDS011;17133;52.418;13.398;2022-09-03T13:12:02;4.07;;;1.50;;
30327;SDS011;17133;52.418;13.398;2022-09-03T13:14:49;2.42;;;1.42;;
30327;SDS011;17133;52.418;13.398;2022-09-03T13:17:18;2.80;;;1.85;;
30327;SDS011;17133;52.418;13.398;2022-09-03T13:25:31;2.40;;;1.90;;
30327;SDS011;17133;52.418;13.398;2022-09-03T13:34:21;3.00;;;1.45;;
30327;SDS011;17133;52.418;13.398;2022-09-03T13:36:55;2.00;;;1.40;;
30327;SDS011;17133;52.418;13.398;2022-09-03T13:39:40;2.73;;;1.57;;
30327;SDS011;17133;52.418;13.398;2022-09-03T13:42:26;3.05;;;1.15;;
30327;SDS011;17133;52.418;13.398;2022-09-03T13:48:13;3.05;;;1.40;;
30327;SDS011;17133;52.418;13.398;2022-09-03T13:53:42;2.13;;;1.42;;
30327;SDS011;17133;52.418;13.398;2022-09-03T13:56:17;2.88;;;1.58;;
30327;SDS011;17133;52.418;13.398;2022-09-03T13:59:02;2.22;;;1.80;;
30327;SDS011;17133;52.418;13.398;2022-09-03T14:01:45;5.72;;;1.77;;
30327;SDS011;17133;52.418;13.398;2022-09-03T14:04:33;3.25;;;1.52;;
30327;SDS011;17133;52.418;13.398;2022-09-03T14:07:14;6.32;;;1.75;;
30327;SDS011;17133;52.418;13.398;2022-09-03T14:09:55;4.00;;;1.83;;
30327;SDS011;17133;52.418;13.398;2022-09-03T14:20:42;4.57;;;2.10;;
30327;SDS011;17133;52.418;13.398;2022-09-03T14:25:55;2.75;;;1.67;;
30327;SDS011;17133;52.418;13.398;2022-09-03T14:28:39;3.63;;;1.45;;
30327;SDS011;17133;52.418;13.398;2022-09-03T14:31:24;2.60;;;1.58;;
30327;SDS011;17133;52.418;13.398;2022-09-03T14:36:49;4.38;;;1.88;;
30327;SDS011;17133;52.418;13.398;2022-09-03T14:39:32;3.47;;;1.70;;
30327;SDS011;17133;52.418;13.398;2022-09-03T14:43:15;3.50;;;1.73;;
30327;SDS011;17133;52.418;13.398;2022-09-03T14:48:26;4.18;;;2.13;;
30327;SDS011;17133;52.418;13.398;2022-09-03T14:54:08;3.50;;;2.00;;
30327;SDS011;17133;52.418;13.398;2022-09-03T14:59:25;3.23;;;1.90;;
30327;SDS011;17133;52.418;13.398;2022-09-03T15:07:18;2.80;;;1.83;;
30327;SDS011;17133;52.418;13.398;2022-09-03T15:12:51;2.58;;;1.50;;
30327;SDS011;17133;52.418;13.398;2022-09-03T15:15:23;3.58;;;1.95;;
30327;SDS011;17133;52.418;13.398;2022-09-03T15:21:13;5.78;;;2.13;;
30327;SDS011;17133;52.418;13.398;2022-09-03T15:29:51;7.63;;;1.98;;
30327;SDS011;17133;52.418;13.398;2022-09-03T15:32:41;3.90;;;1.70;;
30327;SDS011;17133;52.418;13.398;2022-09-03T15:35:27;3.70;;;1.95;;
30327;SDS011;17133;52.418;13.398;2022-09-03T15:38:19;4.47;;;1.95;;
30327;SDS011;17133;52.418;13.398;2022-09-03T15:40:56;3.85;;;2.33;;
30327;SDS011;17133;52.418;13.398;2022-09-03T15:43:30;4.28;;;1.77;;
30327;SDS011;17133;52.418;13.398;2022-09-03T15:51:29;3.75;;;2.10;;
30327;SDS011;17133;52.418;13.398;2022-09-03T15:59:13;6.35;;;2.33;;
30327;SDS011;17133;52.418;13.398;2022-09-03T16:01:59;6.20;;;2.38;;
30327;SDS011;17133;52.418;13.398;2022-09-03T16:10:06;2.47;;;2.00;;
30327;SDS011;17133;52.418;13.398;2022-09-03T16:15:37;4.55;;;2.22;;
30327;SDS011;17133;52.418;13.398;2022-09-03T16:23:38;5.03;;;2.50;;
30327;SDS011;17133;52.418;13.398;2022-09-03T16:29:10;3.92;;;2.17;;
30327;SDS011;17133;52.418;13.398;2022-09-03T16:42:51;3.55;;;2.33;;
30327;SDS011;17133;52.418;13.398;2022-09-03T16:45:37;5.07;;;2.40;;
30327;SDS011;17133;52.418;13.398;2022-09-03T16:51:06;3.85;;;2.10;;
30327;SDS011;17133;52.418;13.398;2022-09-03T17:10:40;3.38;;;2.28;;
30327;SDS011;17133;52.418;13.398;2022-09-03T17:24:30;4.43;;;2.42;;
30327;SDS011;17133;52.418;13.398;2022-09-03T17:35:56;4.30;;;2.58;;
30327;SDS011;17133;52.418;13.398;2022-09-03T17:48:57;3.72;;;2.53;;
30327;SDS011;17133;52.418;13.398;2022-09-03T17:53:59;5.28;;;2.75;;
30327;SDS011;17133;52.418;13.398;2022-09-03T17:56:41;5.32;;;3.08;;
30327;SDS011;17133;52.418;13.398;2022-09-03T18:05:00;6.65;;;2.92;;
30327;SDS011;17133;52.418;13.398;2022-09-03T18:12:50;6.40;;;3.30;;
30327;SDS011;17133;52.418;13.398;2022-09-03T18:17:56;4.88;;;3.17;;
30327;SDS011;17133;52.418;13.398;2022-09-03T18:20:25;4.60;;;3.10;;
30327;SDS011;17133;52.418;13.398;2022-09-03T18:23:17;5.70;;;3.83;;
30327;SDS011;17133;52.418;13.398;2022-09-03T18:26:30;5.85;;;4.78;;
30327;SDS011;17133;52.418;13.398;2022-09-03T18:29:28;6.63;;;5.50;;
30327;SDS011;17133;52.418;13.398;2022-09-03T18:32:18;8.00;;;5.05;;
30327;SDS011;17133;52.418;13.398;2022-09-03T18:35:02;7.07;;;3.80;;
30327;SDS011;17133;52.418;13.398;2022-09-03T18:37:47;5.30;;;3.95;;
30327;SDS011;17133;52.418;13.398;2022-09-03T18:40:39;5.90;;;3.33;;
30327;SDS011;17133;52.418;13.398;2022-09-03T18:46:41;9.02;;;4.30;;
30327;SDS011;17133;52.418;13.398;2022-09-03T18:53:31;7.10;;;4.10;;
30327;SDS011;17133;52.418;13.398;2022-09-03T18:56:39;5.22;;;3.85;;
30327;SDS011;17133;52.418;13.398;2022-09-03T19:24:09;7.85;;;4.00;;
30327;SDS011;17133;52.418;13.398;2022-09-03T19:30:25;5.13;;;3.10;;
30327;SDS011;17133;52.418;13.398;2022-09-03T19:33:14;5.60;;;3.20;;
30327;SDS011;17133;52.418;13.398;2022-09-03T19:36:15;7.85;;;3.50;;
30327;SDS011;17133;52.418;13.398;2022-09-03T19:48:07;5.05;;;2.83;;
30327;SDS011;17133;52.418;13.398;2022-09-03T19:51:14;5.57;;;3.25;;
30327;SDS011;17133;52.418;13.398;2022-09-03T19:54:07;5.45;;;3.15;;
30327;SDS011;17133;52.418;13.398;2022-09-03T19:56:55;5.50;;;2.83;;
30327;SDS011;17133;52.418;13.398;2022-09-03T19:59:41;6.30;;;3.45;;
30327;SDS011;17133;52.418;13.398;2022-09-03T20:02:30;4.95;;;2.38;;
30327;SDS011;17133;52.418;13.398;2022-09-03T20:05:17;4.22;;;2.50;;
30327;SDS011;17133;52.418;13.398;2022-09-03T20:08:03;3.70;;;2.50;;
30327;SDS011;17133;52.418;13.398;2022-09-03T20:10:49;4.50;;;2.90;;
30327;SDS011;17133;52.418;13.398;2022-09-03T20:13:20;5.90;;;2.92;;
30327;SDS011;17133;52.418;13.398;2022-09-03T20:16:06;3.72;;;2.63;;
30327;SDS011;17133;52.418;13.398;2022-09-03T20:18:57;4.50;;;2.92;;
30327;SDS011;17133;52.418;13.398;2022-09-03T20:21:48;4.28;;;2.47;;
30327;SDS011;17133;52.418;13.398;2022-09-03T20:30:14;7.90;;;3.08;;
30327;SDS011;17133;52.418;13.398;2022-09-03T20:35:49;4.43;;;2.58;;
30327;SDS011;17133;52.418;13.398;2022-09-03T20:38:46;5.50;;;2.42;;
30327;SDS011;17133;52.418;13.398;2022-09-03T20:41:24;4.97;;;2.30;;
30327;SDS011;17133;52.418;13.398;2022-09-03T20:44:04;2.88;;;2.30;;
30327;SDS011;17133;52.418;13.398;2022-09-03T20:52:14;3.30;;;2.40;;
30327;SDS011;17133;52.418;13.398;2022-09-03T20:54:52;2.78;;;2.08;;
30327;SDS011;17133;52.418;13.398;2022-09-03T21:00:13;4.95;;;2.60;;
30327;SDS011;17133;52.418;13.398;2022-09-03T21:08:20;5.05;;;2.40;;
30327;SDS011;17133;52.418;13.398;2022-09-03T21:14:18;3.50;;;2.42;;
30327;SDS011;17133;52.418;13.398;2022-09-03T21:25:13;4.25;;;2.65;;
30327;SDS011;17133;52.418;13.398;2022-09-03T21:27:55;4.43;;;2.50;;